createdAt,value
2022-12-24T00:00:44.452Z,999.4
2022-12-24T00:05:46.682Z,999.5
2022-12-24T00:10:57.035Z,999.5
2022-12-24T00:15:49.425Z,999.5
2022-12-24T00:20:55.799Z,999.6
2022-12-24T00:26:13.784Z,999.7
2022-12-24T00:37:00.644Z,999.8
2022-12-24T00:42:08.039Z,999.8
2022-12-24T00:47:14.386Z,1000.0
2022-12-24T00:52:40.850Z,1000.2
2022-12-24T00:57:27.154Z,1000.2
2022-12-24T01:02:33.670Z,1000.2
2022-12-24T01:07:39.923Z,1000.3
2022-12-24T01:12:46.361Z,1000.4
2022-12-24T01:17:52.764Z,1000.5
2022-12-24T01:23:02.817Z,1000.6
2022-12-24T01:28:09.296Z,1000.7
2022-12-24T01:33:16.271Z,1000.8
2022-12-24T01:38:22.693Z,1001.0
2022-12-24T01:43:29.075Z,1001.0
2022-12-24T01:48:25.408Z,1001.1
2022-12-24T01:54:15.932Z,1001.2
2022-12-24T01:59:23.311Z,1001.3
2022-12-24T02:04:29.693Z,1001.3
2022-12-24T02:09:36.115Z,1001.4
2022-12-24T02:14:42.525Z,1001.5
2022-12-24T02:19:48.935Z,1001.5
2022-12-24T02:24:45.329Z,1001.6
2022-12-24T02:30:01.832Z,1001.7
2022-12-24T02:35:08.229Z,1001.8
2022-12-24T02:40:16.886Z,1001.8
2022-12-24T02:45:58.879Z,1001.9
2022-12-24T02:51:06.464Z,1002.0
2022-12-24T02:56:08.847Z,1002.1
2022-12-24T03:06:44.677Z,1002.2
2022-12-24T03:11:27.979Z,1002.4
2022-12-24T03:16:34.482Z,1002.5
2022-12-24T03:21:40.799Z,1002.6
2022-12-24T03:26:47.206Z,1002.6
2022-12-24T03:31:53.678Z,1002.6
2022-12-24T03:37:04.016Z,1002.7
2022-12-24T03:42:06.420Z,1002.8
2022-12-24T03:47:12.773Z,1002.7
2022-12-24T03:52:19.164Z,1002.8
2022-12-24T03:57:45.580Z,1002.7
2022-12-24T04:02:56.062Z,1002.8
2022-12-24T04:07:38.296Z,1002.8
2022-12-24T04:12:52.259Z,1002.9
2022-12-24T04:18:14.819Z,1002.9
2022-12-24T04:23:01.285Z,1002.9
2022-12-24T04:28:07.698Z,1002.9
2022-12-24T04:33:15.620Z,1003.0
2022-12-24T04:38:22.024Z,1003.2
2022-12-24T04:43:28.429Z,1003.3
2022-12-24T04:48:24.779Z,1003.2
2022-12-24T04:53:31.172Z,1003.4
2022-12-24T04:59:10.660Z,1003.5
2022-12-24T05:03:53.971Z,1003.4
2022-12-24T05:08:50.376Z,1003.5
2022-12-24T05:13:56.764Z,1003.5
2022-12-24T05:19:13.387Z,1003.4
2022-12-24T05:24:19.732Z,1003.6
2022-12-24T05:29:26.116Z,1003.5
2022-12-24T05:34:32.530Z,1003.6
2022-12-24T05:39:58.908Z,1003.6
2022-12-24T05:44:45.249Z,1003.6
2022-12-24T05:49:51.677Z,1003.6
2022-12-24T05:54:59.640Z,1003.7
2022-12-24T05:59:56.002Z,1003.8
2022-12-24T06:05:14.136Z,1003.8
2022-12-24T06:10:48.422Z,1003.9
2022-12-24T06:15:30.895Z,1003.9
2022-12-24T06:20:33.156Z,1003.9
2022-12-24T06:26:02.746Z,1003.9
2022-12-24T06:30:49.248Z,1003.9
2022-12-24T06:35:55.626Z,1003.9
2022-12-24T06:41:02.043Z,1003.9
2022-12-24T06:46:09.063Z,1004.1
2022-12-24T06:51:15.466Z,1004.0
2022-12-24T06:56:21.905Z,1004.0
2022-12-24T07:01:28.378Z,1004.2
2022-12-24T07:06:58.766Z,1004.3
2022-12-24T07:11:31.077Z,1004.5
2022-12-24T07:16:47.658Z,1004.4
2022-12-24T07:21:53.856Z,1004.4
2022-12-24T07:27:00.321Z,1004.4
2022-12-24T07:32:30.715Z,1004.6
2022-12-24T07:37:13.052Z,1004.7
2022-12-24T07:42:19.512Z,1004.8
2022-12-24T07:47:25.833Z,1004.8
2022-12-24T07:52:36.326Z,1004.7
2022-12-24T07:57:38.730Z,1004.8
2022-12-24T08:02:35.171Z,1004.9
2022-12-24T08:07:41.439Z,1004.9
2022-12-24T08:12:57.040Z,1005.1
2022-12-24T08:18:04.510Z,1005.2
2022-12-24T08:23:10.907Z,1005.2
2022-12-24T08:28:07.305Z,1005.4
2022-12-24T08:33:27.659Z,1005.4
2022-12-24T08:38:30.051Z,1005.5
2022-12-24T08:43:36.445Z,1005.7
2022-12-24T08:48:42.778Z,1005.6
2022-12-24T08:53:49.167Z,1005.6
2022-12-24T08:58:55.561Z,1005.8
2022-12-24T09:04:01.969Z,1005.8
2022-12-24T09:09:08.378Z,1005.9
2022-12-24T09:14:34.818Z,1005.9
2022-12-24T09:19:21.227Z,1006.1
2022-12-24T09:24:17.576Z,1006.2
2022-12-24T09:29:33.980Z,1006.3
2022-12-24T09:34:40.367Z,1006.4
2022-12-24T09:39:49.722Z,1006.6
2022-12-24T09:44:53.100Z,1006.6
2022-12-24T09:49:59.558Z,1006.5
2022-12-24T09:55:05.926Z,1006.6
2022-12-24T10:00:12.420Z,1006.7
2022-12-24T10:05:18.863Z,1006.8
2022-12-24T10:10:45.228Z,1006.8
2022-12-24T10:15:31.571Z,1006.8
2022-12-24T10:20:58.022Z,1006.9
2022-12-24T10:25:44.351Z,1006.9
2022-12-24T10:30:50.762Z,1007.0
2022-12-24T10:35:47.085Z,1006.8
2022-12-24T10:41:03.739Z,1006.9
2022-12-24T10:46:10.322Z,1006.8
2022-12-24T10:51:06.666Z,1006.8
2022-12-24T10:56:26.660Z,1007.0
2022-12-24T12:27:28.519Z,1007.3
2022-12-24T13:16:33.487Z,1007.5
2022-12-24T13:18:51.447Z,1007.6
2022-12-24T13:27:56.234Z,1007.8
2022-12-24T13:31:51.583Z,1007.8
2022-12-24T13:36:56.851Z,1007.8
2022-12-24T13:42:04.422Z,1007.8
2022-12-24T13:47:10.877Z,1008.0
2022-12-24T13:52:17.248Z,1008.1
2022-12-24T13:57:23.688Z,1008.1
2022-12-24T14:02:30.202Z,1008.3
2022-12-24T14:07:36.484Z,1009.2
2022-12-24T14:12:42.796Z,1009.2
2022-12-24T14:48:38.450Z,1008.7
2022-12-24T14:53:03.869Z,1008.8
2022-12-24T14:57:50.122Z,1008.7
2022-12-24T15:06:58.030Z,1008.8
2022-12-24T15:08:49.037Z,1008.9
2022-12-24T15:13:59.439Z,1009.0
2022-12-24T15:19:21.909Z,1009.1
2022-12-24T15:26:41.353Z,1009.2
2022-12-24T15:30:37.205Z,1009.1
2022-12-24T15:37:24.438Z,1009.2
2022-12-24T15:43:37.960Z,1009.4
2022-12-24T16:00:08.423Z,1009.6
2022-12-24T16:05:40.279Z,1009.6
2022-12-24T16:10:26.643Z,1009.7
2022-12-24T16:15:53.266Z,1009.7
2022-12-24T16:20:38.488Z,1009.8
2022-12-24T16:25:45.876Z,1009.9
2022-12-24T16:35:26.406Z,1010.0
2022-12-24T16:42:58.617Z,1010.0
2022-12-24T17:18:15.864Z,1010.3
2022-12-24T17:30:22.277Z,1010.5
2022-12-24T17:38:24.228Z,1010.4
2022-12-24T17:41:03.537Z,1010.4
2022-12-24T17:45:45.307Z,1010.4
2022-12-24T17:50:56.745Z,1010.4
2022-12-24T17:55:59.158Z,1010.5
2022-12-24T18:01:05.616Z,1010.5
2022-12-24T18:07:10.087Z,1010.5
2022-12-24T18:12:13.490Z,1010.5
2022-12-24T18:17:18.888Z,1010.5
2022-12-24T18:22:26.255Z,1010.4
2022-12-24T18:27:32.791Z,1010.4
2022-12-24T18:32:39.144Z,1010.5
2022-12-24T18:37:45.608Z,1010.4
2022-12-24T18:47:59.644Z,1010.5
2022-12-24T18:53:06.114Z,1010.5
2022-12-24T18:58:12.641Z,1010.6
2022-12-24T19:04:43.494Z,1010.6
2022-12-24T19:13:56.108Z,1010.6
2022-12-24T19:18:38.451Z,1010.7
2022-12-24T19:23:44.894Z,1010.8
2022-12-24T19:28:51.462Z,1010.8
2022-12-24T19:33:57.864Z,1010.9
2022-12-24T19:39:04.254Z,1010.9
2022-12-24T19:44:10.599Z,1010.9
2022-12-24T19:49:16.962Z,1010.8
2022-12-24T19:54:23.411Z,1010.7
2022-12-24T19:59:29.859Z,1010.8
2022-12-24T20:04:26.203Z,1010.8
2022-12-24T20:09:42.634Z,1010.7
2022-12-24T20:14:48.960Z,1010.7
2022-12-24T20:19:55.410Z,1010.8
2022-12-24T20:25:01.817Z,1010.8
2022-12-24T20:30:08.749Z,1010.9
2022-12-24T20:35:39.225Z,1010.9
2022-12-24T20:40:22.216Z,1010.9
2022-12-24T20:45:53.778Z,1010.9
2022-12-24T20:50:56.240Z,1010.9
2022-12-24T20:55:42.636Z,1011.0
2022-12-24T21:00:49.151Z,1011.0
2022-12-24T21:07:07.526Z,1011.1
2022-12-24T21:11:01.802Z,1011.0
2022-12-24T21:16:08.236Z,1011.0
2022-12-24T21:21:14.725Z,1010.9
2022-12-24T21:26:41.169Z,1010.9
2022-12-24T21:31:27.579Z,1011.0
2022-12-24T21:37:17.961Z,1011.0
2022-12-24T21:41:40.250Z,1011.2
2022-12-24T21:46:46.778Z,1011.0
2022-12-24T21:51:53.155Z,1010.9
2022-12-24T21:56:59.682Z,1010.9
2022-12-24T22:02:06.209Z,1010.7
2022-12-24T22:07:31.399Z,1010.6
2022-12-24T22:12:19.300Z,1010.6
2022-12-24T22:17:26.093Z,1010.7
2022-12-24T22:22:32.179Z,1010.8
2022-12-24T22:27:39.769Z,1010.5
2022-12-24T22:32:46.368Z,1010.5
2022-12-24T22:37:57.754Z,1010.4
2022-12-24T22:42:59.144Z,1010.5
2022-12-24T22:48:29.576Z,1010.4
2022-12-24T22:53:10.897Z,1010.3
2022-12-24T22:58:42.330Z,1010.4
2022-12-24T23:03:24.768Z,1010.4
2022-12-24T23:08:55.102Z,1010.5
2022-12-24T23:13:37.445Z,1010.5
2022-12-24T23:18:43.962Z,1010.5
2022-12-24T23:23:50.337Z,1010.5
2022-12-24T23:28:56.815Z,1010.5
2022-12-24T23:34:34.822Z,1010.6
2022-12-24T23:39:13.146Z,1010.6
2022-12-24T23:44:19.543Z,1010.8
2022-12-24T23:49:25.906Z,1010.9
2022-12-24T23:54:32.434Z,1010.9
2022-12-24T23:59:38.845Z,1011.0
